createdAt,value
2023-02-17T00:00:54.111Z,61.08
2023-02-17T00:04:03.939Z,62.37
2023-02-17T00:07:10.616Z,61.12
2023-02-17T00:10:16.562Z,61.27
2023-02-17T00:13:23.228Z,61.04
2023-02-17T00:16:32.331Z,61.80
2023-02-17T00:19:41.663Z,61.37
2023-02-17T00:22:47.568Z,58.39
2023-02-17T00:25:54.278Z,59.92
2023-02-17T00:29:02.084Z,59.15
2023-02-17T00:32:10.709Z,59.49
2023-02-17T00:35:19.882Z,62.68
2023-02-17T00:38:26.845Z,62.95
2023-02-17T00:41:33.802Z,65.89
2023-02-17T00:44:40.486Z,64.47
2023-02-17T00:47:46.255Z,64.96
2023-02-17T00:50:55.582Z,66.66
2023-02-17T00:54:01.417Z,67.81
2023-02-17T00:57:08.268Z,68.01
2023-02-17T01:00:16.083Z,68.41
2023-02-17T01:03:23.159Z,68.39
2023-02-17T01:06:36.807Z,67.93
2023-02-17T01:09:43.548Z,68.40
2023-02-17T01:12:49.370Z,67.43
2023-02-17T01:15:57.075Z,67.15
2023-02-17T01:19:03.686Z,66.10
2023-02-17T01:22:13.810Z,67.76
2023-02-17T01:25:19.830Z,65.80
2023-02-17T01:28:26.721Z,64.44
2023-02-17T01:31:39.447Z,63.24
2023-02-17T01:34:46.341Z,62.07
2023-02-17T01:37:54.778Z,61.55
2023-02-17T01:41:07.797Z,62.18
2023-02-17T01:44:21.987Z,61.83
2023-02-17T01:47:32.840Z,60.80
2023-02-17T01:50:48.222Z,60.96
2023-02-17T01:54:10.573Z,59.96
2023-02-17T01:57:26.786Z,58.46
2023-02-17T02:00:44.117Z,57.84
2023-02-17T02:03:53.576Z,57.53
2023-02-17T02:07:04.975Z,55.86
2023-02-17T02:10:17.562Z,56.91
2023-02-17T02:13:24.925Z,61.48
2023-02-17T02:16:49.803Z,63.69
2023-02-17T02:20:31.542Z,63.08
2023-02-17T02:24:08.319Z,55.73
2023-02-17T02:27:48.952Z,54.24
2023-02-17T02:31:27.705Z,53.08
2023-02-17T02:34:55.245Z,54.02
2023-02-17T02:38:12.218Z,52.59
2023-02-17T02:41:29.652Z,52.21
2023-02-17T02:44:35.599Z,51.30
2023-02-17T02:47:56.144Z,50.53
2023-02-17T02:51:35.564Z,53.38
2023-02-17T02:55:00.652Z,52.06
2023-02-17T02:58:22.401Z,51.21
2023-02-17T03:01:47.370Z,50.09
2023-02-17T03:05:14.249Z,49.95
2023-02-17T03:08:36.317Z,51.61
2023-02-17T03:11:49.129Z,51.06
2023-02-17T03:15:08.212Z,50.24
2023-02-17T03:18:14.424Z,48.82
2023-02-17T03:21:23.052Z,48.86
2023-02-17T03:24:36.463Z,48.61
2023-02-17T03:27:46.744Z,47.93
2023-02-17T03:30:53.794Z,47.30
2023-02-17T03:34:02.452Z,47.90
2023-02-17T03:37:08.274Z,48.42
2023-02-17T03:40:17.769Z,48.35
2023-02-17T03:43:23.877Z,48.44
2023-02-17T03:46:30.870Z,49.23
2023-02-17T03:49:36.927Z,50.52
2023-02-17T03:52:43.611Z,51.58
2023-02-17T03:55:52.220Z,49.13
2023-02-17T03:58:59.029Z,49.83
2023-02-17T04:02:04.925Z,49.67
2023-02-17T04:05:12.007Z,48.96
2023-02-17T04:08:18.019Z,48.67
2023-02-17T04:11:27.576Z,50.07
2023-02-17T04:14:33.507Z,50.72
2023-02-17T04:17:41.096Z,49.40
2023-02-17T04:20:47.385Z,49.75
2023-02-17T04:23:55.311Z,47.98
2023-02-17T04:27:03.937Z,48.97
2023-02-17T04:30:12.924Z,49.56
2023-02-17T04:33:20.344Z,51.68
2023-02-17T04:36:28.186Z,57.28
2023-02-17T04:39:34.100Z,60.79
2023-02-17T04:42:43.470Z,57.77
2023-02-17T04:45:49.344Z,55.09
2023-02-17T04:48:56.237Z,53.90
2023-02-17T04:52:02.360Z,58.50
2023-02-17T04:55:11.244Z,67.69
2023-02-17T04:58:20.958Z,56.20
2023-02-17T05:01:27.769Z,52.81
2023-02-17T05:04:34.395Z,51.92
2023-02-17T05:07:41.087Z,49.26
2023-02-17T05:10:47.385Z,51.23
2023-02-17T05:13:56.743Z,49.33
2023-02-17T05:17:02.627Z,51.28
2023-02-17T05:20:12.748Z,52.07
2023-02-17T05:23:18.706Z,52.87
2023-02-17T05:26:25.445Z,50.77
2023-02-17T05:29:33.972Z,51.11
2023-02-17T05:32:40.713Z,51.42
2023-02-17T05:35:46.608Z,49.37
2023-02-17T05:38:53.498Z,47.76
2023-02-17T05:41:59.472Z,49.35
2023-02-17T05:45:09.593Z,47.54
2023-02-17T05:48:15.686Z,48.37
2023-02-17T05:51:22.451Z,51.26
2023-02-17T05:54:28.374Z,53.10
2023-02-17T05:57:35.695Z,52.29
2023-02-17T06:00:44.195Z,54.73
2023-02-17T06:03:51.377Z,57.35
2023-02-17T06:06:57.303Z,61.10
2023-02-17T06:10:04.049Z,56.39
2023-02-17T06:13:09.953Z,57.23
2023-02-17T06:16:19.361Z,55.73
2023-02-17T06:19:25.228Z,54.76
2023-02-17T06:22:31.882Z,52.65
2023-02-17T06:25:37.788Z,52.23
2023-02-17T06:28:44.535Z,52.23
2023-02-17T06:31:53.207Z,49.35
2023-02-17T06:34:59.915Z,47.57
2023-02-17T06:38:05.832Z,47.75
2023-02-17T06:41:12.604Z,45.77
2023-02-17T06:44:18.502Z,46.23
2023-02-17T06:47:27.809Z,44.40
2023-02-17T06:50:33.704Z,43.69
2023-02-17T06:53:40.554Z,42.70
2023-02-17T06:56:46.781Z,41.37
2023-02-17T06:59:53.487Z,40.81
2023-02-17T07:03:02.123Z,41.53
2023-02-17T07:06:09.501Z,41.01
2023-02-17T07:09:15.449Z,41.49
2023-02-17T07:12:22.231Z,42.24
2023-02-17T07:15:28.510Z,41.91
2023-02-17T07:18:38.343Z,40.04
2023-02-17T07:21:44.446Z,42.08
2023-02-17T07:24:51.332Z,42.71
2023-02-17T07:27:57.343Z,42.86
2023-02-17T07:31:09.767Z,43.24
2023-02-17T07:34:18.336Z,41.75
2023-02-17T07:37:25.211Z,42.85
2023-02-17T07:40:31.994Z,44.26
2023-02-17T07:43:38.913Z,40.16
2023-02-17T07:46:45.042Z,40.03
2023-02-17T07:49:54.466Z,42.25
2023-02-17T07:53:00.347Z,41.86
2023-02-17T07:56:08.547Z,43.44
2023-02-17T07:59:16.396Z,43.32
2023-02-17T08:02:23.258Z,42.76
2023-02-17T08:05:31.911Z,44.46
2023-02-17T08:08:51.124Z,52.29
2023-02-17T08:12:09.606Z,51.01
2023-02-17T08:15:17.082Z,46.02
2023-02-17T08:18:23.058Z,47.33
2023-02-17T08:21:33.524Z,47.44
2023-02-17T08:24:39.389Z,46.67
2023-02-17T08:27:46.277Z,48.20
2023-02-17T08:30:52.177Z,42.02
2023-02-17T08:34:00.438Z,40.30
2023-02-17T08:37:10.238Z,42.67
2023-02-17T08:40:17.050Z,43.76
2023-02-17T08:43:22.905Z,45.62
2023-02-17T08:46:31.268Z,41.15
2023-02-17T08:49:37.341Z,39.15
2023-02-17T08:52:46.675Z,37.98
2023-02-17T08:55:52.460Z,37.88
2023-02-17T08:59:00.255Z,35.85
2023-02-17T09:02:06.320Z,37.04
2023-02-17T09:05:13.983Z,38.00
2023-02-17T09:08:23.466Z,38.52
2023-02-17T09:11:30.545Z,38.53
2023-02-17T09:14:36.828Z,39.95
2023-02-17T09:17:44.379Z,42.64
2023-02-17T09:20:50.520Z,38.07
2023-02-17T09:24:00.009Z,35.79
2023-02-17T09:27:06.100Z,39.32
2023-02-17T09:30:14.867Z,48.00
2023-02-17T09:33:20.801Z,52.67
2023-02-17T09:36:33.746Z,47.87
2023-02-17T09:39:42.334Z,39.67
2023-02-17T09:42:50.543Z,37.16
2023-02-17T09:46:04.369Z,36.21
2023-02-17T09:49:19.270Z,37.48
2023-02-17T09:52:36.537Z,38.85
2023-02-17T09:55:54.844Z,40.23
2023-02-17T09:59:10.343Z,35.13
2023-02-17T10:02:31.251Z,37.01
2023-02-17T10:05:45.562Z,36.50
2023-02-17T10:09:02.131Z,35.11
2023-02-17T10:12:18.889Z,36.78
2023-02-17T10:15:34.721Z,33.53
2023-02-17T10:18:50.619Z,33.37
2023-02-17T10:22:14.022Z,33.07
2023-02-17T10:25:28.226Z,33.00
2023-02-17T10:28:54.065Z,31.64
2023-02-17T10:32:22.484Z,33.70
2023-02-17T10:35:51.328Z,34.58
2023-02-17T10:39:09.614Z,34.38
2023-02-17T10:42:28.291Z,34.34
2023-02-17T10:45:41.397Z,34.01
2023-02-17T10:48:55.473Z,36.62
2023-02-17T10:52:09.062Z,37.16
2023-02-17T10:55:28.622Z,39.46
2023-02-17T10:58:44.357Z,36.29
2023-02-17T11:01:54.820Z,35.11
2023-02-17T11:05:00.822Z,31.90
2023-02-17T11:08:31.293Z,31.87
2023-02-17T11:11:40.033Z,34.90
2023-02-17T11:14:51.965Z,38.30
2023-02-17T11:18:11.910Z,34.46
2023-02-17T11:21:19.007Z,32.51
2023-02-17T11:24:25.549Z,36.91
2023-02-17T11:27:33.360Z,33.78
2023-02-17T11:30:41.715Z,30.58
2023-02-17T11:33:51.173Z,32.83
2023-02-17T11:37:07.236Z,30.86
2023-02-17T11:40:29.252Z,31.74
2023-02-17T11:43:36.031Z,33.07
2023-02-17T11:46:55.920Z,32.27
2023-02-17T11:50:41.277Z,31.12
2023-02-17T11:54:07.789Z,31.12
2023-02-17T11:57:39.260Z,34.46
2023-02-17T12:01:12.097Z,38.48
2023-02-17T12:04:30.975Z,37.51
2023-02-17T12:08:02.796Z,35.84
2023-02-17T12:11:32.181Z,36.46
2023-02-17T12:15:10.175Z,32.59
2023-02-17T12:18:42.397Z,33.63
2023-02-17T12:22:11.752Z,37.62
2023-02-17T12:25:31.150Z,43.69
2023-02-17T12:29:31.954Z,49.88
2023-02-17T12:33:08.193Z,40.36
2023-02-17T12:36:26.852Z,37.95
2023-02-17T12:39:44.690Z,36.76
2023-02-17T12:43:05.118Z,33.85
2023-02-17T12:46:23.280Z,31.76
2023-02-17T12:49:40.609Z,33.77
2023-02-17T12:53:03.678Z,33.54
2023-02-17T12:56:51.136Z,32.95
2023-02-17T13:00:05.616Z,33.02
2023-02-17T13:03:13.898Z,33.19
2023-02-17T13:06:39.452Z,33.20
2023-02-17T13:09:56.661Z,33.86
2023-02-17T13:13:21.274Z,35.50
2023-02-17T13:16:35.599Z,38.18
2023-02-17T13:19:42.267Z,35.57
2023-02-17T13:22:51.422Z,36.42
2023-02-17T13:26:29.373Z,35.67
2023-02-17T13:29:39.416Z,48.63
2023-02-17T13:33:08.917Z,49.27
2023-02-17T13:36:20.846Z,47.64
2023-02-17T13:39:41.792Z,40.13
2023-02-17T13:42:50.458Z,43.30
2023-02-17T13:46:10.955Z,50.30
2023-02-17T13:49:29.535Z,45.97
2023-02-17T13:52:36.111Z,49.86
2023-02-17T13:55:43.562Z,40.49
2023-02-17T13:58:49.412Z,36.23
2023-02-17T14:01:58.006Z,30.16
2023-02-17T14:05:21.850Z,28.12
2023-02-17T14:08:40.174Z,26.53
2023-02-17T14:11:46.304Z,27.16
2023-02-17T14:14:53.719Z,28.16
2023-02-17T14:18:00.275Z,28.23
2023-02-17T14:21:13.262Z,27.07
2023-02-17T14:24:32.201Z,30.49
2023-02-17T14:27:47.277Z,29.56
2023-02-17T14:30:54.713Z,29.11
2023-02-17T14:34:05.979Z,27.73
2023-02-17T14:37:31.173Z,28.62
2023-02-17T14:40:40.013Z,32.11
2023-02-17T14:43:46.056Z,30.88
2023-02-17T14:46:52.782Z,30.72
2023-02-17T14:49:58.737Z,30.92
2023-02-17T14:53:17.614Z,31.38
2023-02-17T14:56:32.671Z,33.62
2023-02-17T14:59:39.836Z,32.42
2023-02-17T15:02:45.987Z,32.54
2023-02-17T15:05:53.485Z,33.48
2023-02-17T15:09:04.275Z,37.55
2023-02-17T15:12:20.233Z,37.01
2023-02-17T15:15:26.575Z,36.23
2023-02-17T15:18:33.547Z,36.82
2023-02-17T15:21:43.239Z,36.62
2023-02-17T15:24:53.236Z,37.06
2023-02-17T15:27:59.504Z,37.71
2023-02-17T15:31:06.747Z,41.16
2023-02-17T15:34:18.970Z,35.61
2023-02-17T15:37:25.886Z,31.53
2023-02-17T15:40:34.908Z,33.17
2023-02-17T15:43:41.921Z,31.81
2023-02-17T15:46:49.066Z,29.77
2023-02-17T15:49:55.825Z,28.40
2023-02-17T15:53:02.728Z,25.86
2023-02-17T15:56:22.335Z,27.46
2023-02-17T15:59:31.123Z,26.50
2023-02-17T16:02:37.959Z,26.57
2023-02-17T16:05:45.537Z,27.18
2023-02-17T16:08:52.545Z,28.93
2023-02-17T16:12:01.815Z,27.75
2023-02-17T16:15:14.226Z,27.15
2023-02-17T16:18:26.009Z,28.53
2023-02-17T16:21:39.561Z,30.76
2023-02-17T16:24:47.031Z,29.78
2023-02-17T16:27:58.087Z,32.14
2023-02-17T16:31:13.822Z,27.63
2023-02-17T16:34:24.882Z,29.69
2023-02-17T16:37:30.968Z,29.99
2023-02-17T16:40:47.338Z,32.48
2023-02-17T16:43:58.942Z,29.79
2023-02-17T16:47:08.987Z,29.11
2023-02-17T16:50:27.126Z,28.59
2023-02-17T16:53:33.993Z,28.70
2023-02-17T16:56:46.496Z,29.01
2023-02-17T16:59:56.183Z,29.50
2023-02-17T17:03:04.998Z,25.69
2023-02-17T17:06:25.719Z,27.27
2023-02-17T17:09:31.636Z,25.87
2023-02-17T17:12:38.882Z,26.75
2023-02-17T17:15:49.084Z,26.27
2023-02-17T17:18:56.309Z,25.45
2023-02-17T17:22:04.960Z,25.94
2023-02-17T17:25:18.517Z,27.73
2023-02-17T17:28:26.562Z,27.74
2023-02-17T17:31:40.965Z,23.82
2023-02-17T17:34:47.176Z,24.16
2023-02-17T17:37:54.289Z,27.64
2023-02-17T17:41:00.292Z,25.33
2023-02-17T17:44:10.481Z,25.45
2023-02-17T17:47:29.821Z,26.02
2023-02-17T17:50:36.792Z,24.44
2023-02-17T17:53:42.892Z,24.88
2023-02-17T17:56:50.504Z,25.35
2023-02-17T17:59:58.172Z,25.02
2023-02-17T18:03:08.017Z,21.77
2023-02-17T18:06:21.886Z,21.62
2023-02-17T18:09:36.035Z,22.96
2023-02-17T18:12:45.334Z,23.80
2023-02-17T18:15:52.635Z,22.95
2023-02-17T18:19:06.091Z,25.84
2023-02-17T18:22:16.323Z,24.28
2023-02-17T18:25:23.200Z,23.50
2023-02-17T18:28:30.034Z,24.28
2023-02-17T18:31:38.120Z,24.37
2023-02-17T18:34:47.449Z,25.48
2023-02-17T18:37:53.915Z,24.48
2023-02-17T18:41:03.210Z,25.11
2023-02-17T18:44:11.207Z,24.72
2023-02-17T18:47:18.024Z,24.92
2023-02-17T18:50:27.107Z,24.27
2023-02-17T18:53:36.245Z,28.14
2023-02-17T18:56:42.326Z,28.41
2023-02-17T18:59:50.788Z,25.20
2023-02-17T19:03:03.484Z,24.91
2023-02-17T19:06:19.422Z,23.64
2023-02-17T19:09:25.306Z,26.26
2023-02-17T19:12:32.159Z,26.78
2023-02-17T19:15:38.161Z,24.98
2023-02-17T19:18:46.949Z,24.35
2023-02-17T19:21:56.093Z,25.32
2023-02-17T19:25:07.012Z,23.21
2023-02-17T19:28:13.134Z,23.67
2023-02-17T19:31:23.452Z,22.82
2023-02-17T19:34:31.357Z,24.28
2023-02-17T19:37:43.662Z,24.46
2023-02-17T19:40:50.658Z,24.17
2023-02-17T19:43:57.379Z,23.54
2023-02-17T19:47:05.007Z,24.91
2023-02-17T19:50:12.352Z,24.08
2023-02-17T19:53:27.601Z,23.60
2023-02-17T19:56:37.157Z,24.14
2023-02-17T19:59:43.017Z,24.01
2023-02-17T20:02:50.220Z,23.49
2023-02-17T20:05:56.179Z,23.80
2023-02-17T20:09:14.878Z,23.20
2023-02-17T20:12:21.939Z,27.19
2023-02-17T20:15:28.864Z,23.98
2023-02-17T20:18:34.772Z,23.13
2023-02-17T20:21:47.176Z,23.93
2023-02-17T20:24:55.720Z,22.15
2023-02-17T20:28:04.380Z,23.38
2023-02-17T20:31:11.980Z,27.64
2023-02-17T20:34:34.901Z,28.20
2023-02-17T20:37:40.748Z,29.20
2023-02-17T20:40:50.122Z,29.18
2023-02-17T20:43:56.344Z,28.83
2023-02-17T20:47:17.587Z,27.22
2023-02-17T20:50:26.171Z,25.01
2023-02-17T20:53:32.903Z,26.20
2023-02-17T20:56:45.376Z,28.73
2023-02-17T20:59:52.249Z,27.03
2023-02-17T21:02:58.590Z,22.52
2023-02-17T21:06:24.356Z,26.55
2023-02-17T21:09:30.698Z,27.65
2023-02-17T21:12:40.602Z,27.41
2023-02-17T21:15:46.794Z,26.97
2023-02-17T21:18:55.293Z,26.31
2023-02-17T21:22:01.522Z,28.09
2023-02-17T21:25:12.240Z,29.62
2023-02-17T21:28:25.445Z,27.56
2023-02-17T21:31:32.359Z,25.35
2023-02-17T21:34:42.032Z,26.41
2023-02-17T21:37:48.937Z,24.00
2023-02-17T21:40:55.033Z,20.03
2023-02-17T21:44:16.928Z,18.95
2023-02-17T21:47:26.912Z,18.32
2023-02-17T21:50:37.505Z,17.50
2023-02-17T21:53:43.790Z,17.51
2023-02-17T21:56:50.629Z,17.00
2023-02-17T21:59:59.245Z,19.45
2023-02-17T22:03:05.980Z,19.69
2023-02-17T22:06:22.435Z,18.09
2023-02-17T22:09:32.431Z,17.05
2023-02-17T22:12:39.842Z,18.86
2023-02-17T22:15:49.237Z,22.97
2023-02-17T22:18:55.457Z,22.71
2023-02-17T22:22:08.639Z,18.80
2023-02-17T22:25:33.526Z,15.18
2023-02-17T22:28:40.313Z,15.22
2023-02-17T22:31:50.630Z,14.82
2023-02-17T22:34:57.707Z,16.53
2023-02-17T22:38:03.702Z,16.94
2023-02-17T22:41:13.870Z,16.54
2023-02-17T22:44:20.023Z,17.23
2023-02-17T22:47:29.575Z,16.81
2023-02-17T22:50:35.547Z,15.56
2023-02-17T22:53:42.903Z,14.89
2023-02-17T22:56:48.945Z,15.11
2023-02-17T22:59:55.767Z,15.94
2023-02-17T23:03:04.374Z,16.28
2023-02-17T23:06:18.122Z,15.80
2023-02-17T23:09:24.064Z,17.43
2023-02-17T23:12:30.877Z,16.53
2023-02-17T23:15:42.562Z,16.65
2023-02-17T23:18:52.004Z,16.56
2023-02-17T23:22:03.187Z,16.69
2023-02-17T23:25:09.979Z,17.11
2023-02-17T23:28:16.010Z,18.90
2023-02-17T23:31:22.852Z,18.79
2023-02-17T23:34:32.183Z,20.54
2023-02-17T23:37:38.949Z,27.80
2023-02-17T23:40:45.561Z,36.56
2023-02-17T23:43:52.457Z,22.43
2023-02-17T23:46:58.286Z,15.64
2023-02-17T23:50:09.821Z,14.76
2023-02-17T23:53:15.896Z,14.65
2023-02-17T23:56:27.954Z,14.68
2023-02-17T23:59:40.667Z,16.04
